Maritime Instructor — WCW8625 — position and weather

sailwx.info

Track history (hours):
 
Tides and Currents Weather Stations Pressure Air Temp Water Temp Dewpoint Dewpoint Depression Visibility Wind Speed Wind Dir Waves Ship Positions

Maritime Instructor

Owner: WASHINGTON, STATE OF, SEATTLE, WA. More information available from US FCC via Universal Licensing System and Coast Guard Vessel Documentation Center.

Last reported at 2016-Jun-17 23:33 UTC. Time now 2016-Jun-26 01:04 UTC.
Position N 47°40' W 122°22'.
Warning: this ship's position is 8 days out of date.

Length 26 m; draft 2 m.

Type: Ship. MMSI: 303556000.

Date/timePositionNaut miles runAvg speedWind from/ knotsBaromVisibWave heightAir tempDewpointWater temp
2016-Jun-17 23:33N 47°40' W 122°22'4 3.8
2016-Jun-17 22:33N 47°43' W 122°24'7 6.7
2016-Jun-17 21:33N 47°50' W 122°24'9 8.7
2016-Jun-17 20:33N 47°41' W 122°25'2 2.3
2016-Jun-17 19:33N 47°40' W 122°23'  
2016-Jun-14 22:33N 47°40' W 122°23'2 1.8
2016-Jun-14 21:33N 47°40' W 122°26'6 6.3
2016-Jun-14 20:33N 47°35' W 122°21'6 6.3
2016-Jun-14 19:33N 47°40' W 122°26'  
2016-Jun-11 00:33N 47°40' W 122°23'3 2.7
2016-Jun-10 23:33N 47°40' W 122°27'6 6.4
2016-Jun-10 22:33N 47°36' W 122°33'4 4.2
2016-Jun-10 21:33N 47°33' W 122°38'0 0.0
2016-Jun-10 20:33N 47°33' W 122°38'3 3.0
2016-Jun-10 19:33N 47°35' W 122°35'6 5.8
2016-Jun-10 18:33N 47°39' W 122°29'4 3.8
2016-Jun-10 17:33N 47°40' W 122°23'0 0.3
2016-Jun-10 16:33N 47°40' W 122°23'0 0.4
2016-Jun-10 15:33N 47°40' W 122°23'  
2016-Jun-08 01:29N 47°40' W 122°23'2 2.2
2016-Jun-08 00:33N 47°39' W 122°20'  
Track history (hours):
 
Tides and Currents Weather Stations Pressure Air Temp Water Temp Dewpoint Dewpoint Depression Visibility Wind Speed Wind Dir Waves Ship Positions

Maritime Instructor

Owner: WASHINGTON, STATE OF, SEATTLE, WA. More information available from US FCC via Universal Licensing System and Coast Guard Vessel Documentation Center.

Last reported at 2016-Jun-17 23:33 UTC. Time now 2016-Jun-26 01:04 UTC.
Position N 47°40' W 122°22'.
Warning: this ship's position is 8 days out of date.

Length 26 m; draft 2 m.

Type: Ship. MMSI: 303556000.

Date/timePositionNaut miles runAvg speedWind from/ knotsBaromVisibWave heightAir tempDewpointWater temp
2016-Jun-17 23:33N 47°40' W 122°22'4 3.8
2016-Jun-17 22:33N 47°43' W 122°24'7 6.7
2016-Jun-17 21:33N 47°50' W 122°24'9 8.7
2016-Jun-17 20:33N 47°41' W 122°25'2 2.3
2016-Jun-17 19:33N 47°40' W 122°23'  
2016-Jun-14 22:33N 47°40' W 122°23'2 1.8
2016-Jun-14 21:33N 47°40' W 122°26'6 6.3
2016-Jun-14 20:33N 47°35' W 122°21'6 6.3
2016-Jun-14 19:33N 47°40' W 122°26'  
2016-Jun-11 00:33N 47°40' W 122°23'3 2.7
2016-Jun-10 23:33N 47°40' W 122°27'6 6.4
2016-Jun-10 22:33N 47°36' W 122°33'4 4.2
2016-Jun-10 21:33N 47°33' W 122°38'0 0.0
2016-Jun-10 20:33N 47°33' W 122°38'3 3.0
2016-Jun-10 19:33N 47°35' W 122°35'6 5.8
2016-Jun-10 18:33N 47°39' W 122°29'4 3.8
2016-Jun-10 17:33N 47°40' W 122°23'0 0.3
2016-Jun-10 16:33N 47°40' W 122°23'0 0.4
2016-Jun-10 15:33N 47°40' W 122°23'  
2016-Jun-08 01:29N 47°40' W 122°23'2 2.2
2016-Jun-08 00:33N 47°39' W 122°20'  

Dump ship's entire track history